createdAt,value
2018-09-18T00:00:37.369Z,5.67
2018-09-18T00:03:05.551Z,5.87
2018-09-18T00:05:33.835Z,5.57
2018-09-18T00:08:02.016Z,5.27
2018-09-18T00:10:30.247Z,4.97
2018-09-18T00:12:58.886Z,5.37
2018-09-18T00:15:27.043Z,5.63
2018-09-18T00:17:55.223Z,5.37
2018-09-18T00:20:23.406Z,5.53
2018-09-18T00:22:51.595Z,5.43
2018-09-18T00:25:20.119Z,5.07
2018-09-18T00:27:48.292Z,5.50
2018-09-18T00:30:16.468Z,5.63
2018-09-18T00:32:44.747Z,5.47
2018-09-18T00:35:12.935Z,5.43
2018-09-18T00:37:41.149Z,5.30
2018-09-18T00:40:09.328Z,5.33
2018-09-18T00:42:37.515Z,5.33
2018-09-18T00:45:05.704Z,5.70
2018-09-18T00:47:33.888Z,5.60
2018-09-18T00:50:02.045Z,5.60
2018-09-18T00:52:30.285Z,5.57
2018-09-18T00:54:58.486Z,5.97
2018-09-18T00:57:26.862Z,6.10
2018-09-18T00:59:55.267Z,6.07
2018-09-18T01:02:23.452Z,5.47
2018-09-18T01:04:51.880Z,6.30
2018-09-18T01:07:20.065Z,5.70
2018-09-18T01:09:48.251Z,6.10
2018-09-18T01:12:16.443Z,5.67
2018-09-18T01:14:44.608Z,6.00
2018-09-18T01:17:12.779Z,6.17
2018-09-18T01:19:40.947Z,5.83
2018-09-18T01:22:09.119Z,6.20
2018-09-18T01:24:37.273Z,6.23
2018-09-18T01:27:05.684Z,5.83
2018-09-18T01:29:33.870Z,6.20
2018-09-18T01:32:02.051Z,6.20
2018-09-18T01:34:30.217Z,6.10
2018-09-18T01:36:58.396Z,6.33
2018-09-18T01:39:26.564Z,6.60
2018-09-18T01:41:54.727Z,6.10
2018-09-18T01:44:22.921Z,6.07
2018-09-18T01:46:51.105Z,6.70
2018-09-18T01:49:19.299Z,6.53
2018-09-18T01:51:47.468Z,6.63
2018-09-18T01:54:15.639Z,6.60
2018-09-18T01:56:43.815Z,6.23
2018-09-18T01:59:11.986Z,6.50
2018-09-18T02:01:40.159Z,5.83
2018-09-18T02:04:08.370Z,6.60
2018-09-18T02:06:36.555Z,6.30
2018-09-18T02:09:05.779Z,6.03
2018-09-18T02:11:33.928Z,6.47
2018-09-18T02:14:02.091Z,6.00
2018-09-18T02:16:30.276Z,6.70
2018-09-18T02:18:58.443Z,6.50
2018-09-18T02:21:26.596Z,6.17
2018-09-18T02:23:55.115Z,6.63
2018-09-18T02:26:23.282Z,6.77
2018-09-18T02:28:51.447Z,6.30
2018-09-18T02:31:19.643Z,6.77
2018-09-18T02:33:47.820Z,7.13
2018-09-18T02:36:15.991Z,7.10
2018-09-18T02:38:44.135Z,7.70
2018-09-18T02:41:12.396Z,6.97
2018-09-18T02:43:40.717Z,7.50
2018-09-18T02:46:08.915Z,7.27
2018-09-18T02:48:37.085Z,7.80
2018-09-18T02:51:05.266Z,7.40
2018-09-18T02:53:33.416Z,7.80
2018-09-18T02:56:01.609Z,8.20
2018-09-18T02:58:29.782Z,7.83
2018-09-18T03:00:57.947Z,7.50
2018-09-18T03:03:26.111Z,7.30
2018-09-18T03:05:54.298Z,7.53
2018-09-18T03:08:22.447Z,7.50
2018-09-18T03:10:50.608Z,7.13
2018-09-18T03:13:18.787Z,7.03
2018-09-18T03:15:46.991Z,7.13
2018-09-18T03:18:15.146Z,6.80
2018-09-18T03:20:43.299Z,6.60
2018-09-18T03:23:11.743Z,6.77
2018-09-18T03:25:39.923Z,7.23
2018-09-18T03:28:08.096Z,7.20
2018-09-18T03:30:36.261Z,7.03
2018-09-18T03:33:04.577Z,7.10
2018-09-18T03:35:32.745Z,7.00
2018-09-18T03:38:00.921Z,7.47
2018-09-18T03:40:29.104Z,7.30
2018-09-18T03:42:57.443Z,6.93
2018-09-18T03:45:25.607Z,7.90
2018-09-18T03:47:53.796Z,6.70
2018-09-18T03:50:21.968Z,7.20
2018-09-18T03:52:50.141Z,7.70
2018-09-18T03:55:18.316Z,7.20
2018-09-18T03:57:46.475Z,7.23
2018-09-18T04:00:14.654Z,7.87
2018-09-18T04:02:42.868Z,7.57
2018-09-18T04:05:11.120Z,7.73
2018-09-18T04:07:39.299Z,7.40
2018-09-18T04:10:07.514Z,7.27
2018-09-18T04:12:35.992Z,7.30
2018-09-18T04:15:04.412Z,7.43
2018-09-18T04:17:32.680Z,7.30
2018-09-18T04:20:00.824Z,7.20
2018-09-18T04:22:28.986Z,7.00
2018-09-18T04:24:57.168Z,7.70
2018-09-18T04:27:25.368Z,7.70
2018-09-18T04:29:54.545Z,7.00
2018-09-18T04:32:22.728Z,7.83
2018-09-18T04:34:50.896Z,7.30
2018-09-18T04:37:19.120Z,7.17
2018-09-18T04:39:47.285Z,7.90
2018-09-18T04:42:15.527Z,7.73
2018-09-18T04:44:43.777Z,7.47
2018-09-18T04:47:12.173Z,7.90
2018-09-18T04:49:40.340Z,7.53
2018-09-18T04:52:08.602Z,7.70
2018-09-18T04:54:36.779Z,7.93
2018-09-18T04:57:05.103Z,7.13
2018-09-18T04:59:33.348Z,8.30
2018-09-18T05:02:01.553Z,7.73
2018-09-18T05:04:29.698Z,7.43
2018-09-18T05:06:57.869Z,8.37
2018-09-18T05:09:26.148Z,7.67
2018-09-18T05:11:54.200Z,7.30
2018-09-18T05:14:22.361Z,8.00
2018-09-18T05:16:50.520Z,8.10
2018-09-18T05:19:19.101Z,8.47
2018-09-18T05:21:47.299Z,7.57
2018-09-18T05:24:15.506Z,8.00
2018-09-18T05:26:43.672Z,8.40
2018-09-18T05:29:11.858Z,8.60
2018-09-18T05:31:40.092Z,8.03
2018-09-18T05:34:08.324Z,8.87
2018-09-18T05:36:36.751Z,8.53
2018-09-18T05:39:15.859Z,8.83
2018-09-18T05:41:44.367Z,8.93
2018-09-18T05:44:12.565Z,8.77
2018-09-18T05:46:41.067Z,9.20
2018-09-18T05:49:09.351Z,8.67
2018-09-18T05:51:39.917Z,8.90
2018-09-18T05:54:26.463Z,9.00
2018-09-18T05:56:55.345Z,9.70
2018-09-18T05:59:25.701Z,9.07
2018-09-18T06:01:55.910Z,9.17
2018-09-18T06:04:24.099Z,8.67
2018-09-18T06:06:52.320Z,8.93
2018-09-18T06:09:21.547Z,9.13
2018-09-18T06:11:49.962Z,8.17
2018-09-18T06:14:18.207Z,8.50
2018-09-18T06:16:46.452Z,7.93
2018-09-18T06:19:14.676Z,8.80
2018-09-18T06:21:42.917Z,7.90
2018-09-18T06:24:11.104Z,9.00
2018-09-18T06:26:39.332Z,8.97
2018-09-18T06:29:07.524Z,9.60
2018-09-18T06:31:35.695Z,8.73
2018-09-18T06:34:03.889Z,9.60
2018-09-18T06:36:32.605Z,8.70
2018-09-18T06:39:02.601Z,8.93
2018-09-18T06:41:33.509Z,8.70
2018-09-18T06:44:04.221Z,9.10
2018-09-18T06:46:32.406Z,9.13
2018-09-18T06:49:00.600Z,9.43
2018-09-18T06:51:28.872Z,9.47
2018-09-18T06:53:57.053Z,9.47
2018-09-18T06:56:25.233Z,10.03
2018-09-18T06:58:53.515Z,9.00
2018-09-18T07:01:21.708Z,8.80
2018-09-18T07:03:49.928Z,9.20
2018-09-18T07:06:18.106Z,9.50
2018-09-18T07:08:46.303Z,9.63
2018-09-18T07:11:14.511Z,9.03
2018-09-18T07:13:42.679Z,9.13
2018-09-18T07:16:10.863Z,8.30
2018-09-18T07:18:39.059Z,9.33
2018-09-18T07:21:07.263Z,9.20
2018-09-18T07:23:35.450Z,8.67
2018-09-18T07:26:03.636Z,9.30
2018-09-18T07:28:31.826Z,8.40
2018-09-18T07:31:00.053Z,8.83
2018-09-18T07:33:28.258Z,9.07
2018-09-18T07:35:56.463Z,8.77
2018-09-18T07:38:24.659Z,8.70
2018-09-18T07:40:53.118Z,8.80
2018-09-18T07:43:21.321Z,8.63
2018-09-18T07:45:49.508Z,8.93
2018-09-18T07:48:17.708Z,8.50
2018-09-18T07:50:45.911Z,8.87
2018-09-18T07:53:14.148Z,8.40
2018-09-18T07:55:42.390Z,8.53
2018-09-18T07:58:10.609Z,8.73
2018-09-18T08:00:39.076Z,8.07
2018-09-18T08:03:07.428Z,8.50
2018-09-18T08:05:35.771Z,9.10
2018-09-18T08:08:03.988Z,8.13
2018-09-18T08:10:32.151Z,8.70
2018-09-18T08:13:00.340Z,8.33
2018-09-18T08:15:28.515Z,8.33
2018-09-18T08:17:56.693Z,8.27
2018-09-18T08:20:25.201Z,9.40
2018-09-18T08:22:53.345Z,8.57
2018-09-18T08:25:21.652Z,8.30
2018-09-18T08:27:49.923Z,8.20
2018-09-18T08:30:18.099Z,8.23
2018-09-18T08:32:46.321Z,8.43
2018-09-18T08:35:14.509Z,8.53
2018-09-18T08:37:42.708Z,9.27
2018-09-18T08:40:11.046Z,8.47
2018-09-18T08:42:39.116Z,8.70
2018-09-18T08:45:07.280Z,8.63
2018-09-18T08:47:36.535Z,9.27
2018-09-18T08:50:04.978Z,8.87
2018-09-18T08:52:33.194Z,8.37
2018-09-18T08:55:01.473Z,8.10
2018-09-18T08:57:29.655Z,7.83
2018-09-18T08:59:57.935Z,8.45
2018-09-18T09:02:26.523Z,7.67
2018-09-18T09:04:54.713Z,8.05
2018-09-18T09:07:22.948Z,7.80
2018-09-18T09:09:51.409Z,7.33
2018-09-18T09:12:19.631Z,8.45
2018-09-18T09:14:47.830Z,7.72
2018-09-18T09:17:16.033Z,7.87
2018-09-18T09:19:44.228Z,7.40
2018-09-18T09:22:12.498Z,7.62
2018-09-18T09:24:42.424Z,7.45
2018-09-18T09:27:10.623Z,6.65
2018-09-18T09:29:38.882Z,7.17
2018-09-18T09:32:07.058Z,6.70
2018-09-18T09:34:35.209Z,7.30
2018-09-18T09:37:03.489Z,7.35
2018-09-18T09:39:31.608Z,7.05
2018-09-18T09:41:59.830Z,6.72
2018-09-18T09:44:28.335Z,7.28
2018-09-18T09:46:56.517Z,6.60
2018-09-18T09:49:24.731Z,6.75
2018-09-18T09:51:52.953Z,6.87
2018-09-18T09:54:21.371Z,6.67
2018-09-18T09:56:49.664Z,6.85
2018-09-18T09:59:17.799Z,6.65
2018-09-18T10:01:51.574Z,6.40
2018-09-18T10:04:20.048Z,7.20
2018-09-18T10:06:48.295Z,6.75
2018-09-18T10:09:16.488Z,5.90
2018-09-18T10:11:44.864Z,6.20
2018-09-18T10:14:13.088Z,5.50
2018-09-18T10:16:41.553Z,6.47
2018-09-18T10:19:09.879Z,6.60
2018-09-18T10:21:38.269Z,6.17
2018-09-18T10:24:07.243Z,6.30
2018-09-18T10:26:35.538Z,6.03
2018-09-18T10:29:03.719Z,5.95
2018-09-18T10:31:32.009Z,6.33
2018-09-18T10:34:00.176Z,5.92
2018-09-18T10:36:28.371Z,6.00
2018-09-18T10:38:56.560Z,6.00
2018-09-18T10:41:25.821Z,6.05
2018-09-18T10:43:54.000Z,5.50
2018-09-18T10:46:22.191Z,5.33
2018-09-18T10:48:53.958Z,6.33
2018-09-18T10:51:22.247Z,5.72
2018-09-18T10:53:50.444Z,5.50
2018-09-18T10:56:18.704Z,5.55
2018-09-18T10:58:47.047Z,5.33
2018-09-18T11:01:15.287Z,5.50
2018-09-18T11:03:43.505Z,5.40
2018-09-18T11:06:11.685Z,5.70
2018-09-18T11:08:40.199Z,5.33
2018-09-18T11:11:08.419Z,5.37
2018-09-18T11:13:36.664Z,5.78
2018-09-18T11:16:05.024Z,5.60
2018-09-18T11:18:33.266Z,5.75
2018-09-18T11:21:01.421Z,5.50
2018-09-18T11:23:29.687Z,5.35
2018-09-18T11:25:57.976Z,5.72
2018-09-18T11:28:26.210Z,5.28
2018-09-18T11:30:54.448Z,5.58
2018-09-18T11:33:22.696Z,5.20
2018-09-18T11:35:51.324Z,5.47
2018-09-18T11:38:19.621Z,5.20
2018-09-18T11:40:47.854Z,5.15
2018-09-18T11:43:16.321Z,5.03
2018-09-18T11:45:44.599Z,5.30
2018-09-18T11:48:13.044Z,5.03
2018-09-18T11:50:41.473Z,5.17
2018-09-18T11:53:10.561Z,5.33
2018-09-18T11:55:40.065Z,5.47
2018-09-18T11:58:08.327Z,5.30
2018-09-18T12:00:37.085Z,4.90
2018-09-18T12:03:06.060Z,4.80
2018-09-18T12:05:34.316Z,4.85
2018-09-18T12:08:02.535Z,5.10
2018-09-18T12:10:30.705Z,4.72
2018-09-18T12:12:58.879Z,4.70
2018-09-18T12:15:27.103Z,5.35
2018-09-18T12:17:55.287Z,5.20
2018-09-18T12:20:23.539Z,5.03
2018-09-18T12:22:51.777Z,4.78
2018-09-18T12:25:20.035Z,5.42
2018-09-18T12:27:48.280Z,5.17
2018-09-18T12:30:16.505Z,4.50
2018-09-18T12:32:44.702Z,5.22
2018-09-18T12:35:12.924Z,4.65
2018-09-18T12:37:41.075Z,4.50
2018-09-18T12:40:09.687Z,4.67
2018-09-18T12:42:38.014Z,5.10
2018-09-18T12:45:06.184Z,4.25
2018-09-18T12:47:34.367Z,4.83
2018-09-18T12:50:02.948Z,4.70
2018-09-18T12:52:30.811Z,4.60
2018-09-18T12:54:59.022Z,4.47
2018-09-18T12:57:27.429Z,4.75
2018-09-18T12:59:55.570Z,4.47
2018-09-18T13:02:23.764Z,4.95
2018-09-18T13:04:51.862Z,4.78
2018-09-18T13:07:20.052Z,4.53
2018-09-18T13:09:48.291Z,4.62
2018-09-18T13:12:16.683Z,4.97
2018-09-18T13:14:44.900Z,4.60
2018-09-18T13:17:13.101Z,5.12
2018-09-18T13:19:41.311Z,4.78
2018-09-18T13:22:09.532Z,4.87
2018-09-18T13:24:37.708Z,5.17
2018-09-18T13:27:05.903Z,4.75
2018-09-18T13:29:34.117Z,4.75
2018-09-18T13:32:02.319Z,5.12
2018-09-18T13:34:30.496Z,4.80
2018-09-18T13:36:58.676Z,4.92
2018-09-18T13:39:26.848Z,5.12
2018-09-18T13:41:56.304Z,5.33
2018-09-18T13:44:24.533Z,4.70
2018-09-18T13:46:52.694Z,5.00
2018-09-18T13:49:20.884Z,4.58
2018-09-18T13:51:49.364Z,4.67
2018-09-18T13:54:17.504Z,4.40
2018-09-18T13:56:45.780Z,4.05
2018-09-18T13:59:14.037Z,4.25
2018-09-18T14:01:42.723Z,4.40
2018-09-18T14:04:10.754Z,4.72
2018-09-18T14:06:38.968Z,4.80
2018-09-18T14:09:09.120Z,5.60
2018-09-18T14:11:37.771Z,4.83
2018-09-18T14:14:06.151Z,5.50
2018-09-18T14:16:34.303Z,5.30
2018-09-18T14:19:02.707Z,5.30
2018-09-18T14:21:30.903Z,5.35
2018-09-18T14:23:59.117Z,4.67
2018-09-18T14:26:27.453Z,5.20
2018-09-18T14:28:55.539Z,5.12
2018-09-18T14:31:23.756Z,5.55
2018-09-18T14:33:52.295Z,5.00
2018-09-18T14:36:20.526Z,5.22
2018-09-18T14:38:48.893Z,5.50
2018-09-18T14:41:17.114Z,5.08
2018-09-18T14:43:45.316Z,5.28
2018-09-18T14:46:13.661Z,5.60
2018-09-18T14:48:41.881Z,6.08
2018-09-18T14:51:10.190Z,5.33
2018-09-18T14:53:38.880Z,5.90
2018-09-18T14:56:07.257Z,5.83
2018-09-18T14:58:35.521Z,5.40
2018-09-18T15:01:03.788Z,4.80
2018-09-18T15:03:32.061Z,5.33
2018-09-18T15:06:00.319Z,5.30
2018-09-18T15:08:28.661Z,4.90
2018-09-18T15:10:56.977Z,5.75
2018-09-18T15:13:25.330Z,5.00
2018-09-18T15:15:54.556Z,5.37
2018-09-18T15:18:22.988Z,5.15
2018-09-18T15:20:51.276Z,5.25
2018-09-18T15:23:19.524Z,5.03
2018-09-18T15:25:47.772Z,4.65
2018-09-18T15:28:15.974Z,4.50
2018-09-18T15:30:44.352Z,4.62
2018-09-18T15:33:12.649Z,4.30
2018-09-18T15:35:40.960Z,4.53
2018-09-18T15:38:10.443Z,4.65
2018-09-18T15:40:39.333Z,4.78
2018-09-18T15:43:07.950Z,5.03
2018-09-18T15:45:36.070Z,4.62
2018-09-18T15:48:04.368Z,4.75
2018-09-18T15:50:32.769Z,4.62
2018-09-18T15:53:01.144Z,4.83
2018-09-18T15:55:34.061Z,4.30
2018-09-18T15:58:02.315Z,4.80
2018-09-18T16:00:30.758Z,4.30
2018-09-18T16:02:58.983Z,4.30
2018-09-18T16:05:27.236Z,4.60
2018-09-18T16:07:55.534Z,4.47
2018-09-18T16:10:23.903Z,4.97
2018-09-18T16:12:52.168Z,4.50
2018-09-18T16:15:20.434Z,4.78
2018-09-18T16:17:48.608Z,5.10
2018-09-18T16:20:16.950Z,4.87
2018-09-18T16:22:45.186Z,5.12
2018-09-18T16:25:13.679Z,5.03
2018-09-18T16:27:41.898Z,4.97
2018-09-18T16:30:10.301Z,5.10
2018-09-18T16:32:38.566Z,5.00
2018-09-18T16:35:07.222Z,4.72
2018-09-18T16:37:35.520Z,4.80
2018-09-18T16:40:04.109Z,5.00
2018-09-18T16:42:32.695Z,4.78
2018-09-18T16:45:00.948Z,5.53
2018-09-18T16:47:29.171Z,5.00
2018-09-18T16:49:57.463Z,4.78
2018-09-18T16:52:25.913Z,4.92
2018-09-18T16:54:54.259Z,4.97
2018-09-18T16:57:22.697Z,4.70
2018-09-18T16:59:51.172Z,4.92
2018-09-18T17:02:19.707Z,5.30
2018-09-18T17:04:48.017Z,5.15
2018-09-18T17:07:16.869Z,4.97
2018-09-18T17:09:52.010Z,4.87
2018-09-18T17:12:20.890Z,4.53
2018-09-18T17:14:49.507Z,4.30
2018-09-18T17:17:17.808Z,4.72
2018-09-18T17:19:46.132Z,3.85
2018-09-18T17:22:14.626Z,3.67
2018-09-18T17:24:43.092Z,3.22
2018-09-18T17:27:11.612Z,3.67
2018-09-18T17:29:39.931Z,3.33
2018-09-18T17:32:08.172Z,3.10
2018-09-18T17:34:36.403Z,2.47
2018-09-18T17:37:04.823Z,2.60
2018-09-18T17:39:34.559Z,2.90
2018-09-18T17:44:54.682Z,2.70
2018-09-18T17:47:22.927Z,2.60
2018-09-18T17:49:52.020Z,2.30
2018-09-18T17:52:20.237Z,2.83
2018-09-18T17:54:48.607Z,2.80
2018-09-18T17:57:17.013Z,3.20
2018-09-18T17:59:45.425Z,3.30
2018-09-18T18:02:13.584Z,3.03
2018-09-18T18:04:41.945Z,3.47
2018-09-18T18:07:10.088Z,2.90
2018-09-18T18:09:38.531Z,3.40
2018-09-18T18:12:06.869Z,3.30
2018-09-18T18:14:35.223Z,3.60
2018-09-18T18:17:03.659Z,3.00
2018-09-18T18:19:31.871Z,3.10
2018-09-18T18:22:00.108Z,3.80
2018-09-18T18:24:28.674Z,3.27
2018-09-18T18:27:00.346Z,2.77
2018-09-18T18:29:28.777Z,2.90
2018-09-18T18:32:02.922Z,3.17
2018-09-18T18:34:31.144Z,3.20
2018-09-18T18:36:59.620Z,3.50
2018-09-18T18:39:27.879Z,2.87
2018-09-18T18:41:58.359Z,2.83
2018-09-18T18:44:26.975Z,3.23
2018-09-18T18:46:55.241Z,3.07
2018-09-18T18:49:23.608Z,2.90
2018-09-18T18:51:51.911Z,2.90
2018-09-18T18:54:20.181Z,2.73
2018-09-18T18:56:48.863Z,2.83
2018-09-18T18:59:20.151Z,2.80
2018-09-18T19:01:48.419Z,2.90
2018-09-18T19:04:16.659Z,2.90
2018-09-18T19:06:45.149Z,2.60
2018-09-18T19:09:13.385Z,2.97
2018-09-18T19:11:41.620Z,3.17
2018-09-18T19:14:09.849Z,3.37
2018-09-18T19:16:38.160Z,2.50
2018-09-18T19:19:06.633Z,3.00
2018-09-18T19:21:35.114Z,3.60
2018-09-18T19:24:03.472Z,3.27
2018-09-18T19:26:31.726Z,3.40
2018-09-18T19:29:00.427Z,3.17
2018-09-18T19:31:29.190Z,2.90
2018-09-18T19:33:59.089Z,3.33
2018-09-18T19:36:27.565Z,3.67
2018-09-18T19:38:55.864Z,3.80
2018-09-18T19:41:24.344Z,4.10
2018-09-18T19:43:53.029Z,3.93
2018-09-18T19:46:21.247Z,4.13
2018-09-18T19:48:49.526Z,3.70
2018-09-18T19:51:17.729Z,3.77
2018-09-18T19:53:46.012Z,3.23
2018-09-18T19:56:14.243Z,3.37
2018-09-18T19:58:42.457Z,3.70
2018-09-18T20:01:11.076Z,3.33
2018-09-18T20:03:39.252Z,3.63
2018-09-18T20:06:07.494Z,3.83
2018-09-18T20:08:36.175Z,4.03
2018-09-18T20:11:04.655Z,3.40
2018-09-18T20:13:32.821Z,3.90
2018-09-18T20:16:01.061Z,3.60
2018-09-18T20:18:29.290Z,4.27
2018-09-18T20:20:57.544Z,4.03
2018-09-18T20:23:25.760Z,4.10
2018-09-18T20:25:54.001Z,3.80
2018-09-18T20:28:22.172Z,4.40
2018-09-18T20:30:50.447Z,4.60
2018-09-18T20:33:18.652Z,4.87
2018-09-18T20:35:46.923Z,4.50
2018-09-18T20:38:15.044Z,3.97
2018-09-18T20:40:43.275Z,4.30
2018-09-18T20:43:11.509Z,4.50
2018-09-18T20:45:39.728Z,4.73
2018-09-18T20:48:13.770Z,4.63
2018-09-18T20:50:42.021Z,4.10
2018-09-18T20:53:10.190Z,4.57
2018-09-18T20:55:38.641Z,4.43
2018-09-18T20:58:06.826Z,5.03
2018-09-18T21:00:35.057Z,5.17
2018-09-18T21:03:06.268Z,5.20
2018-09-18T21:05:34.499Z,5.10
2018-09-18T21:08:02.716Z,4.97
2018-09-18T21:10:31.091Z,4.80
2018-09-18T21:12:59.267Z,5.50
2018-09-18T21:15:27.539Z,5.97
2018-09-18T21:17:55.766Z,6.20
2018-09-18T21:20:23.971Z,6.27
2018-09-18T21:22:52.200Z,5.87
2018-09-18T21:25:25.324Z,5.83
2018-09-18T21:27:53.536Z,5.90
2018-09-18T21:30:21.704Z,6.30
2018-09-18T21:32:49.915Z,6.20
2018-09-18T21:35:18.390Z,5.60
2018-09-18T21:37:46.588Z,5.97
2018-09-18T21:40:14.783Z,6.10
2018-09-18T21:42:42.983Z,6.47
2018-09-18T21:45:11.168Z,6.57
2018-09-18T21:47:39.365Z,6.20
2018-09-18T21:50:07.812Z,6.60
2018-09-18T21:52:36.089Z,6.47
2018-09-18T21:55:04.282Z,6.53
2018-09-18T21:57:32.485Z,7.13
2018-09-18T22:00:00.655Z,6.80
2018-09-18T22:02:28.834Z,6.90
2018-09-18T22:04:56.996Z,6.80
2018-09-18T22:07:25.290Z,6.60
2018-09-18T22:09:53.815Z,6.20
2018-09-18T22:12:22.087Z,7.07
2018-09-18T22:14:50.234Z,7.00
2018-09-18T22:17:18.440Z,6.97
2018-09-18T22:19:47.567Z,6.53
2018-09-18T22:22:15.780Z,7.30
2018-09-18T22:24:43.914Z,6.80
2018-09-18T22:27:12.115Z,7.10
2018-09-18T22:29:40.365Z,7.67
2018-09-18T22:32:08.558Z,7.70
2018-09-18T22:34:36.735Z,7.97
2018-09-18T22:37:05.087Z,8.03
2018-09-18T22:39:33.275Z,8.10
2018-09-18T22:42:01.624Z,7.97
2018-09-18T22:44:29.839Z,7.57
2018-09-18T22:46:58.037Z,7.57
2018-09-18T22:49:26.183Z,7.37
2018-09-18T22:52:04.787Z,6.63
2018-09-18T22:54:32.984Z,6.63
2018-09-18T22:57:01.207Z,6.57
2018-09-18T22:59:29.378Z,6.70
2018-09-18T23:01:57.582Z,7.13
2018-09-18T23:04:25.824Z,6.53
2018-09-18T23:06:54.159Z,6.87
2018-09-18T23:09:28.784Z,6.90
2018-09-18T23:11:56.962Z,6.97
2018-09-18T23:14:25.266Z,6.80
2018-09-18T23:16:53.469Z,6.40
2018-09-18T23:19:21.669Z,7.13
2018-09-18T23:21:49.847Z,6.97
2018-09-18T23:24:18.105Z,6.90
2018-09-18T23:26:46.387Z,7.30
2018-09-18T23:29:15.212Z,7.20
2018-09-18T23:31:43.472Z,7.47
2018-09-18T23:34:11.659Z,7.67
2018-09-18T23:36:39.856Z,8.23
2018-09-18T23:39:08.971Z,8.37
2018-09-18T23:41:37.615Z,8.57
2018-09-18T23:44:06.124Z,8.33
2018-09-18T23:46:34.322Z,7.80
2018-09-18T23:49:02.519Z,8.27
2018-09-18T23:51:30.703Z,7.63
2018-09-18T23:53:58.915Z,7.53
2018-09-18T23:56:27.123Z,7.27
2018-09-18T23:58:55.323Z,8.17
